createdAt,value
2022-10-22T00:02:20.708Z,96608.47
2022-10-22T00:04:49.337Z,96604.97
2022-10-22T00:07:18.153Z,96607.78
2022-10-22T00:09:45.265Z,96616.00
2022-10-22T00:12:12.586Z,96609.16
2022-10-22T00:14:39.489Z,96611.81
2022-10-22T00:17:08.231Z,96606.66
2022-10-22T00:19:38.432Z,96600.38
2022-10-22T00:22:08.584Z,96582.94
2022-10-22T00:24:36.678Z,96586.13
2022-10-22T00:27:04.496Z,96585.13
2022-10-22T00:29:31.696Z,96575.25
2022-10-22T00:31:58.456Z,96575.09
2022-10-22T00:34:25.074Z,96570.91
2022-10-22T00:36:52.141Z,96570.34
2022-10-22T00:39:22.218Z,96574.97
2022-10-22T00:41:51.267Z,96584.59
2022-10-22T00:44:55.535Z,96593.09
2022-10-22T00:47:23.942Z,96593.25
2022-10-22T00:49:52.057Z,96589.06
2022-10-22T00:52:19.443Z,96588.50
2022-10-22T00:54:46.085Z,96583.78
2022-10-22T00:57:12.874Z,96583.34
2022-10-22T00:59:39.587Z,96587.97
2022-10-22T01:02:06.157Z,96578.47
2022-10-22T01:04:32.725Z,96582.22
2022-10-22T01:06:59.381Z,96591.84
2022-10-22T01:09:28.657Z,96590.19
2022-10-22T01:12:06.535Z,96589.34
2022-10-22T01:14:40.904Z,96592.97
2022-10-22T01:17:15.725Z,96593.66
2022-10-22T01:19:48.138Z,96598.28
2022-10-22T01:22:20.011Z,96596.88
2022-10-22T01:25:08.963Z,96589.06
2022-10-22T01:27:57.310Z,96582.22
2022-10-22T01:30:25.294Z,96575.53
2022-10-22T01:33:05.212Z,96588.50
2022-10-22T01:35:36.876Z,96597.81
2022-10-22T01:38:09.007Z,96595.31
2022-10-22T01:40:36.588Z,96597.66
2022-10-22T01:43:08.434Z,96599.63
2022-10-22T01:45:38.385Z,96589.31
2022-10-22T01:48:37.157Z,96592.66
2022-10-22T01:51:13.033Z,96595.16
2022-10-22T01:54:17.159Z,96599.78
2022-10-22T01:57:17.952Z,96600.06
2022-10-22T01:59:54.702Z,96606.50
2022-10-22T02:02:41.631Z,96603.16
2022-10-22T02:05:11.938Z,96603.84
2022-10-22T02:07:46.904Z,96606.09
2022-10-22T02:10:14.573Z,96591.84
2022-10-22T02:12:43.916Z,96599.41
2022-10-22T02:15:12.637Z,96595.75
2022-10-22T02:17:41.382Z,96605.25
2022-10-22T02:20:18.113Z,96604.41
2022-10-22T02:22:45.199Z,96597.44
2022-10-22T02:25:12.691Z,96607.22
2022-10-22T02:27:47.158Z,96600.09
2022-10-22T02:30:19.992Z,96597.44
2022-10-22T02:33:06.789Z,96602.75
2022-10-22T02:35:34.817Z,96599.09
2022-10-22T02:38:02.839Z,96594.09
2022-10-22T02:40:31.226Z,96596.47
2022-10-22T02:42:58.094Z,96593.81
2022-10-22T02:45:25.188Z,96601.91
2022-10-22T02:47:52.274Z,96607.06
2022-10-22T02:50:18.851Z,96603.44
2022-10-22T02:52:45.433Z,96600.78
2022-10-22T02:55:12.002Z,96609.31
2022-10-22T02:57:38.905Z,96592.97
2022-10-22T03:00:07.880Z,96595.06
2022-10-22T03:02:34.856Z,96603.03
2022-10-22T03:05:01.730Z,96592.69
2022-10-22T03:07:28.293Z,96603.44
2022-10-22T03:09:54.855Z,96608.59
2022-10-22T03:12:21.458Z,96607.63
2022-10-22T03:14:48.005Z,96606.81
2022-10-22T03:17:14.650Z,96611.13
2022-10-22T03:19:42.071Z,96618.94
2022-10-22T03:22:18.098Z,96620.59
2022-10-22T03:24:47.772Z,96631.22
2022-10-22T03:27:16.515Z,96632.19
2022-10-22T03:29:43.522Z,96631.75
2022-10-22T03:32:10.109Z,96636.09
2022-10-22T03:34:36.661Z,96645.69
2022-10-22T03:37:03.424Z,96642.09
2022-10-22T03:39:33.455Z,96650.16
2022-10-22T03:42:01.013Z,96654.09
2022-10-22T03:44:28.477Z,96654.09
2022-10-22T03:46:58.687Z,96661.22
2022-10-22T03:49:28.391Z,96661.06
2022-10-22T03:51:55.027Z,96669.56
2022-10-22T03:54:21.616Z,96668.63
2022-10-22T03:56:48.178Z,96673.19
2022-10-22T03:59:15.113Z,96677.66
2022-10-22T04:01:41.687Z,96678.50
2022-10-22T04:04:08.734Z,96673.88
2022-10-22T04:06:35.287Z,96682.41
2022-10-22T04:09:02.389Z,96681.44
2022-10-22T04:11:29.061Z,96676.13
2022-10-22T04:13:55.643Z,96687.72
2022-10-22T04:16:25.036Z,96692.75
2022-10-22T04:18:54.080Z,96703.63
2022-10-22T04:21:20.972Z,96699.00
2022-10-22T04:23:49.145Z,96709.63
2022-10-22T04:26:17.289Z,96714.09
2022-10-22T04:28:44.652Z,96710.59
2022-10-22T04:31:14.681Z,96714.38
2022-10-22T04:33:41.802Z,96719.81
2022-10-22T04:36:13.950Z,96726.06
2022-10-22T04:38:41.490Z,96732.19
2022-10-22T04:41:16.733Z,96729.56
2022-10-22T04:43:44.113Z,96728.00
2022-10-22T04:46:12.050Z,96733.47
2022-10-22T04:48:40.208Z,96736.25
2022-10-22T04:51:09.034Z,96733.59
2022-10-22T04:53:36.295Z,96728.81
2022-10-22T04:56:11.375Z,96732.06
2022-10-22T04:58:38.647Z,96736.38
2022-10-22T05:01:17.667Z,96740.13
2022-10-22T05:03:45.259Z,96739.00
2022-10-22T05:08:44.947Z,96742.34
2022-10-22T05:11:21.445Z,96741.94
2022-10-22T05:13:48.267Z,96741.78
2022-10-22T05:16:15.390Z,96741.66
2022-10-22T05:18:44.863Z,96739.13
2022-10-22T05:21:14.033Z,96741.22
2022-10-22T05:23:41.083Z,96736.88
2022-10-22T05:26:09.755Z,96740.25
2022-10-22T05:28:36.542Z,96755.81
2022-10-22T05:31:04.262Z,96747.72
2022-10-22T05:33:32.340Z,96750.38
2022-10-22T05:35:59.739Z,96745.78
2022-10-22T05:38:26.671Z,96752.63
2022-10-22T05:41:00.682Z,96763.50
2022-10-22T05:43:27.845Z,96757.31
2022-10-22T05:45:54.849Z,96760.84
2022-10-22T05:48:21.577Z,96760.94
2022-10-22T05:50:50.791Z,96760.38
2022-10-22T05:53:18.656Z,96775.56
2022-10-22T05:55:45.838Z,96768.00
2022-10-22T05:58:13.651Z,96772.47
2022-10-22T06:00:40.903Z,96770.94
2022-10-22T06:03:07.501Z,96772.88
2022-10-22T06:05:37.783Z,96788.19
2022-10-22T06:08:04.921Z,96797.22
2022-10-22T06:10:31.811Z,96797.81
2022-10-22T06:12:58.549Z,96793.94
2022-10-22T06:15:25.112Z,96796.72
2022-10-22T06:17:51.739Z,96808.84
2022-10-22T06:20:18.514Z,96813.19
2022-10-22T06:22:45.169Z,96810.41
2022-10-22T06:25:12.541Z,96815.81
2022-10-22T06:27:39.105Z,96812.91
2022-10-22T06:30:06.299Z,96819.66
2022-10-22T06:32:32.893Z,96826.63
2022-10-22T06:34:59.473Z,96822.72
2022-10-22T06:37:26.060Z,96835.03
2022-10-22T06:39:52.663Z,96834.75
2022-10-22T06:42:19.210Z,96837.53
2022-10-22T06:44:47.678Z,96839.91
2022-10-22T06:47:14.272Z,96838.94
2022-10-22T06:49:40.854Z,96850.66
2022-10-22T06:52:07.429Z,96855.34
2022-10-22T06:54:34.225Z,96851.75
2022-10-22T06:57:00.760Z,96867.38
2022-10-22T06:59:27.362Z,96866.97
2022-10-22T07:01:53.917Z,96865.78
2022-10-22T07:04:20.495Z,96861.44
2022-10-22T07:06:47.301Z,96872.19
2022-10-22T07:09:13.943Z,96874.81
2022-10-22T07:11:43.457Z,96879.47
2022-10-22T07:14:10.828Z,96882.41
2022-10-22T07:16:37.909Z,96879.63
2022-10-22T07:19:05.472Z,96885.66
2022-10-22T07:21:32.590Z,96888.81
2022-10-22T07:23:59.375Z,96886.50
2022-10-22T07:26:28.475Z,96890.50
2022-10-22T07:28:55.046Z,96895.25
2022-10-22T07:31:21.643Z,96895.00
2022-10-22T07:33:48.283Z,96897.22
2022-10-22T07:36:17.994Z,96900.97
2022-10-22T07:38:49.549Z,96911.72
2022-10-22T07:41:17.351Z,96910.44
2022-10-22T07:43:44.530Z,96913.94
2022-10-22T07:46:11.509Z,96916.56
2022-10-22T07:48:39.072Z,96922.69
2022-10-22T07:51:06.113Z,96924.53
2022-10-22T07:53:33.036Z,96920.63
2022-10-22T07:55:59.695Z,96922.41
2022-10-22T07:58:26.394Z,96924.06
2022-10-22T08:00:57.093Z,96924.38
2022-10-22T08:03:24.039Z,96919.22
2022-10-22T08:05:51.739Z,96934.31
2022-10-22T08:08:19.207Z,96932.50
2022-10-22T08:10:47.634Z,96936.28
2022-10-22T08:13:15.057Z,96946.34
2022-10-22T08:15:42.598Z,96949.13
2022-10-22T08:18:09.825Z,96947.91
2022-10-22T08:20:36.444Z,96942.88
2022-10-22T08:23:03.069Z,96944.25
2022-10-22T08:25:29.671Z,96941.88
2022-10-22T08:27:56.341Z,96947.59
2022-10-22T08:30:23.015Z,96952.25
2022-10-22T08:32:53.033Z,96948.16
2022-10-22T08:35:20.905Z,96954.19
2022-10-22T08:37:47.483Z,96952.41
2022-10-22T08:40:23.383Z,96950.41
2022-10-22T08:43:23.730Z,96944.34
2022-10-22T08:46:15.781Z,96950.91
2022-10-22T08:48:48.268Z,96952.06
2022-10-22T08:51:21.262Z,96955.25
2022-10-22T08:54:19.815Z,96960.50
2022-10-22T08:57:12.886Z,96958.53
2022-10-22T09:00:13.693Z,96966.06
2022-10-22T09:03:01.274Z,96975.03
2022-10-22T09:05:34.370Z,96973.34
2022-10-22T09:08:01.168Z,96985.22
2022-10-22T09:10:34.341Z,96990.19
2022-10-22T09:13:00.996Z,96998.25
2022-10-22T09:15:28.130Z,96998.31
2022-10-22T09:18:32.457Z,97000.53
2022-10-22T09:21:10.463Z,96993.75
2022-10-22T09:23:53.596Z,96993.47
2022-10-22T09:26:20.170Z,97001.56
2022-10-22T09:28:51.288Z,97001.63
2022-10-22T09:31:18.309Z,96995.94
2022-10-22T09:33:49.040Z,97011.16
2022-10-22T09:36:17.766Z,97011.06
2022-10-22T09:38:53.337Z,97013.75
2022-10-22T09:41:23.816Z,97004.06
2022-10-22T09:43:50.482Z,97007.13
2022-10-22T09:46:23.078Z,96999.19
2022-10-22T09:49:13.645Z,97002.16
2022-10-22T09:51:46.011Z,97004.78
2022-10-22T09:54:26.653Z,96995.44
2022-10-22T09:56:56.861Z,97003.78
2022-10-22T09:59:32.258Z,97002.56
2022-10-22T10:02:13.613Z,97006.50
2022-10-22T10:04:52.584Z,97007.34
2022-10-22T10:07:20.745Z,97010.66
2022-10-22T10:09:48.119Z,97008.44
2022-10-22T10:12:26.017Z,97005.22
2022-10-22T10:15:08.374Z,97010.59
2022-10-22T10:17:53.069Z,97006.84
2022-10-22T10:20:34.059Z,97008.56
2022-10-22T10:23:14.383Z,97001.97
2022-10-22T10:26:08.429Z,97005.03
2022-10-22T10:29:02.109Z,97007.03
2022-10-22T10:31:57.447Z,97017.72
2022-10-22T10:35:04.378Z,97021.00
2022-10-22T10:37:38.414Z,97028.38
2022-10-22T10:40:16.931Z,97034.28
2022-10-22T10:42:51.020Z,97042.38
2022-10-22T10:45:38.199Z,97040.72
2022-10-22T10:48:10.420Z,97048.25
2022-10-22T10:50:42.821Z,97044.94
2022-10-22T10:53:39.801Z,97049.66
2022-10-22T10:56:21.714Z,97055.63
2022-10-22T10:59:13.036Z,97050.41
2022-10-22T11:01:39.589Z,97053.47
2022-10-22T11:04:44.130Z,97046.59
2022-10-22T11:07:30.427Z,97052.53
2022-10-22T11:10:10.105Z,97048.16
2022-10-22T11:12:42.662Z,97054.72
2022-10-22T11:15:16.341Z,97053.41
2022-10-22T11:17:46.344Z,97048.28
2022-10-22T11:20:45.357Z,97051.47
2022-10-22T11:23:20.541Z,97058.69
2022-10-22T11:25:50.196Z,97034.59
2022-10-22T11:28:42.356Z,97047.38
2022-10-22T11:31:15.874Z,97043.69
2022-10-22T11:34:00.457Z,97049.13
2022-10-22T11:36:38.305Z,97051.63
2022-10-22T11:39:05.152Z,97060.47
2022-10-22T11:41:33.517Z,97051.31
2022-10-22T11:44:21.482Z,97050.25
2022-10-22T11:47:08.578Z,97048.44
2022-10-22T11:49:45.305Z,97048.03
2022-10-22T11:52:28.227Z,97047.84
2022-10-22T11:54:57.823Z,97052.19
2022-10-22T11:57:38.690Z,97051.09
2022-10-22T12:00:46.308Z,97054.28
2022-10-22T12:03:19.591Z,97058.94
2022-10-22T12:05:46.843Z,97064.47
2022-10-22T12:08:20.904Z,97057.06
2022-10-22T12:11:15.397Z,97049.88
2022-10-22T12:14:26.938Z,97046.41
2022-10-22T12:16:57.739Z,97049.41
2022-10-22T12:19:38.503Z,97042.69
2022-10-22T12:22:16.399Z,97051.09
2022-10-22T12:24:47.819Z,97046.59
2022-10-22T12:27:24.196Z,97045.69
2022-10-22T12:29:56.135Z,97049.28
2022-10-22T12:32:23.413Z,97044.25
2022-10-22T12:34:52.591Z,97052.63
2022-10-22T12:37:19.743Z,97045.84
2022-10-22T12:39:46.774Z,97051.38
2022-10-22T12:42:16.606Z,97050.25
2022-10-22T12:44:44.585Z,97055.31
2022-10-22T12:47:16.974Z,97051.38
2022-10-22T12:49:47.964Z,97046.34
2022-10-22T12:52:21.414Z,97050.28
2022-10-22T12:54:52.384Z,97044.13
2022-10-22T12:57:21.186Z,97053.91
2022-10-22T12:59:51.486Z,97048.44
2022-10-22T13:02:24.988Z,97051.09
2022-10-22T13:05:07.495Z,97051.25
2022-10-22T13:07:43.107Z,97044.47
2022-10-22T13:10:26.804Z,97039.88
2022-10-22T13:12:58.460Z,97040.50
2022-10-22T13:15:27.862Z,97038.53
2022-10-22T13:18:16.922Z,97047.50
2022-10-22T13:20:56.043Z,97045.22
2022-10-22T13:23:25.506Z,97049.03
2022-10-22T13:26:11.813Z,97043.31
2022-10-22T13:28:38.634Z,97045.88
2022-10-22T13:31:21.121Z,97023.78
2022-10-22T13:33:53.886Z,97022.72
2022-10-22T13:36:20.502Z,97022.78
2022-10-22T13:38:47.109Z,97026.00
2022-10-22T13:41:27.277Z,97030.44
2022-10-22T13:43:54.711Z,97027.97
2022-10-22T13:46:22.137Z,97028.50
2022-10-22T13:48:52.552Z,97023.03
2022-10-22T13:51:32.097Z,97030.16
2022-10-22T13:53:59.016Z,97028.78
2022-10-22T13:56:25.564Z,97029.59
2022-10-22T13:58:52.175Z,97024.53
2022-10-22T14:01:23.130Z,97027.75
2022-10-22T14:03:51.817Z,97010.00
2022-10-22T14:06:20.233Z,97020.97
2022-10-22T14:08:51.679Z,97013.22
2022-10-22T14:11:18.396Z,97020.59
2022-10-22T14:13:45.017Z,97016.97
2022-10-22T14:16:19.984Z,97019.22
2022-10-22T14:18:47.667Z,97016.31
2022-10-22T14:21:15.851Z,97012.28
2022-10-22T14:23:45.072Z,97014.91
2022-10-22T14:26:21.667Z,97012.38
2022-10-22T14:29:08.938Z,97017.78
2022-10-22T14:31:36.406Z,97017.09
2022-10-22T14:34:03.126Z,97026.50
2022-10-22T14:36:29.741Z,97031.53
2022-10-22T14:38:56.370Z,97032.63
2022-10-22T14:41:26.046Z,97034.28
2022-10-22T14:43:54.498Z,97028.66
2022-10-22T14:46:21.095Z,97030.03
2022-10-22T14:48:47.868Z,97035.16
2022-10-22T14:51:17.109Z,97034.06
2022-10-22T14:53:44.498Z,97042.47
2022-10-22T14:56:17.454Z,97038.69
2022-10-22T14:58:44.130Z,97038.81
2022-10-22T15:01:10.824Z,97037.44
2022-10-22T15:03:37.497Z,97041.91
2022-10-22T15:06:04.503Z,97033.34
2022-10-22T15:08:31.297Z,97043.28
2022-10-22T15:11:08.348Z,97041.47
2022-10-22T15:13:35.167Z,97037.13
2022-10-22T15:16:05.281Z,97032.78
2022-10-22T15:18:31.949Z,97040.22
2022-10-22T15:21:04.270Z,97035.44
2022-10-22T15:23:31.021Z,97037.59
2022-10-22T15:25:57.991Z,97034.38
2022-10-22T15:28:25.617Z,97032.28
2022-10-22T15:30:57.692Z,97035.78
2022-10-22T15:33:25.057Z,97034.97
2022-10-22T15:35:51.995Z,97042.50
2022-10-22T15:38:19.353Z,97047.78
2022-10-22T15:40:46.094Z,97048.38
2022-10-22T15:43:12.886Z,97044.28
2022-10-22T15:45:40.059Z,97044.28
2022-10-22T15:48:06.646Z,97039.34
2022-10-22T15:50:38.255Z,97037.78
2022-10-22T15:53:05.260Z,97043.47
2022-10-22T15:55:31.962Z,97048.19
2022-10-22T15:58:01.844Z,97040.25
2022-10-22T16:00:30.149Z,97047.47
2022-10-22T16:02:56.744Z,97044.91
2022-10-22T16:05:23.427Z,97045.25
2022-10-22T16:07:51.409Z,97037.88
2022-10-22T16:10:18.115Z,97049.75
2022-10-22T16:12:44.797Z,97057.56
2022-10-22T16:15:11.497Z,97054.47
2022-10-22T16:17:38.110Z,97055.94
2022-10-22T16:20:05.242Z,97057.78
2022-10-22T16:22:31.890Z,97056.94
2022-10-22T16:24:58.458Z,97068.50
2022-10-22T16:27:25.120Z,97064.91
2022-10-22T16:29:51.685Z,97060.56
2022-10-22T16:32:18.273Z,97068.75
2022-10-22T16:34:44.917Z,97067.41
2022-10-22T16:37:11.477Z,97071.94
2022-10-22T16:39:38.355Z,97069.66
2022-10-22T16:42:05.278Z,97076.56
2022-10-22T16:44:31.857Z,97077.78
2022-10-22T16:46:58.461Z,97080.44
2022-10-22T16:49:25.056Z,97089.06
2022-10-22T16:51:51.631Z,97087.41
2022-10-22T16:54:18.466Z,97084.59
2022-10-22T16:56:45.106Z,97086.00
2022-10-22T16:59:11.674Z,97094.53
2022-10-22T17:01:41.244Z,97093.63
2022-10-22T17:04:08.219Z,97090.22
2022-10-22T17:06:34.868Z,97088.63
2022-10-22T17:09:01.645Z,97098.16
2022-10-22T17:11:34.522Z,97099.97
2022-10-22T17:14:02.261Z,97103.31
2022-10-22T17:16:28.939Z,97102.81
2022-10-22T17:18:56.343Z,97109.88
2022-10-22T17:21:23.689Z,97102.09
2022-10-22T17:23:55.697Z,97110.00
2022-10-22T17:26:23.410Z,97105.44
2022-10-22T17:28:50.732Z,97109.44
2022-10-22T17:31:23.013Z,97108.38
2022-10-22T17:33:51.436Z,97112.41
2022-10-22T17:36:19.169Z,97117.94
2022-10-22T17:38:49.567Z,97121.78
2022-10-22T17:41:19.676Z,97123.94
2022-10-22T17:43:46.864Z,97116.13
2022-10-22T17:46:25.321Z,97125.31
2022-10-22T17:48:57.825Z,97125.59
2022-10-22T17:51:26.552Z,97131.38
2022-10-22T17:53:53.711Z,97125.91
2022-10-22T17:56:22.711Z,97128.75
2022-10-22T17:58:50.009Z,97129.31
2022-10-22T18:01:25.632Z,97124.03
2022-10-22T18:03:53.837Z,97131.06
2022-10-22T18:06:20.873Z,97121.47
2022-10-22T18:08:47.609Z,97127.38
2022-10-22T18:11:17.811Z,97123.56
2022-10-22T18:13:44.426Z,97119.97
2022-10-22T18:16:11.017Z,97123.13
2022-10-22T18:18:37.601Z,97121.94
2022-10-22T18:21:05.294Z,97120.53
2022-10-22T18:23:31.839Z,97122.22
2022-10-22T18:25:58.400Z,97117.69
2022-10-22T18:28:25.074Z,97109.06
2022-10-22T18:30:51.943Z,97114.00
2022-10-22T18:33:19.567Z,97113.22
2022-10-22T18:35:46.628Z,97112.72
2022-10-22T18:38:13.288Z,97114.31
2022-10-22T18:40:46.664Z,97111.16
2022-10-22T18:43:13.393Z,97116.38
2022-10-22T18:45:47.622Z,97112.97
2022-10-22T18:48:16.979Z,97110.31
2022-10-22T18:50:44.481Z,97107.81
2022-10-22T18:53:13.097Z,97108.50
2022-10-22T18:55:40.760Z,97110.00
2022-10-22T18:58:07.388Z,97107.19
2022-10-22T19:00:36.894Z,97117.63
2022-10-22T19:03:03.569Z,97112.56
2022-10-22T19:05:30.823Z,97112.19
2022-10-22T19:07:57.532Z,97112.72
2022-10-22T19:10:24.147Z,97106.34
2022-10-22T19:12:50.694Z,97114.06
2022-10-22T19:15:17.438Z,97105.75
2022-10-22T19:17:44.187Z,97099.28
2022-10-22T19:20:11.070Z,97109.34
2022-10-22T19:22:37.630Z,97108.97
2022-10-22T19:25:06.034Z,97116.81
2022-10-22T19:27:36.487Z,97108.88
2022-10-22T19:30:04.632Z,97109.56
2022-10-22T19:32:31.232Z,97104.81
2022-10-22T19:34:57.998Z,97102.72
2022-10-22T19:37:24.670Z,97101.19
2022-10-22T19:39:51.408Z,97103.63
2022-10-22T19:42:18.030Z,97096.66
2022-10-22T19:44:44.595Z,97098.09
2022-10-22T19:47:11.956Z,97098.34
2022-10-22T19:49:38.588Z,97087.50
2022-10-22T19:52:05.504Z,97089.94
2022-10-22T19:54:32.206Z,97089.94
2022-10-22T19:56:58.843Z,97094.47
2022-10-22T19:59:29.806Z,97092.56
2022-10-22T20:01:58.098Z,97095.81
2022-10-22T20:04:26.751Z,97095.47
2022-10-22T20:06:54.218Z,97097.59
2022-10-22T20:09:20.921Z,97104.00
2022-10-22T20:11:47.578Z,97109.03
2022-10-22T20:14:14.504Z,97107.00
2022-10-22T20:16:41.433Z,97102.81
2022-10-22T20:19:08.782Z,97105.19
2022-10-22T20:21:35.634Z,97105.56
2022-10-22T20:24:02.297Z,97106.28
2022-10-22T20:26:29.049Z,97106.97
2022-10-22T20:28:56.758Z,97107.47
2022-10-22T20:31:26.587Z,97110.81
2022-10-22T20:33:58.806Z,97114.44
2022-10-22T20:36:26.334Z,97117.81
2022-10-22T20:38:52.924Z,97102.88
2022-10-22T20:41:23.179Z,97104.19
2022-10-22T20:43:51.361Z,97100.09
2022-10-22T20:46:27.265Z,97093.25
2022-10-22T20:48:57.098Z,97095.19
2022-10-22T20:51:23.720Z,97100.47
2022-10-22T20:53:50.307Z,97101.69
2022-10-22T20:56:18.334Z,97091.56
2022-10-22T20:58:48.605Z,97089.41
2022-10-22T21:01:21.548Z,97083.22
2022-10-22T21:03:52.987Z,97091.31
2022-10-22T21:06:23.249Z,97097.56
2022-10-22T21:08:51.150Z,97095.19
2022-10-22T21:11:18.825Z,97091.09
2022-10-22T21:13:45.454Z,97100.84
2022-10-22T21:16:14.457Z,97094.84
2022-10-22T21:18:41.074Z,97097.47
2022-10-22T21:21:08.798Z,97100.97
2022-10-22T21:23:36.174Z,97092.75
2022-10-22T21:26:03.727Z,97088.22
2022-10-22T21:28:35.143Z,97093.00
2022-10-22T21:31:04.297Z,97095.63
2022-10-22T21:33:31.481Z,97096.59
2022-10-22T21:35:58.311Z,97102.88
2022-10-22T21:38:26.039Z,97102.75
2022-10-22T21:40:52.702Z,97111.78
2022-10-22T21:43:19.548Z,97103.00
2022-10-22T21:45:46.130Z,97113.47
2022-10-22T21:48:13.762Z,97111.44
2022-10-22T21:50:42.181Z,97110.34
2022-10-22T21:53:10.197Z,97102.53
2022-10-22T21:55:40.817Z,97101.41
2022-10-22T21:58:08.234Z,97102.38
2022-10-22T22:00:35.381Z,97102.38
2022-10-22T22:03:02.058Z,97109.38
2022-10-22T22:05:29.022Z,97099.88
2022-10-22T22:07:55.593Z,97096.25
2022-10-22T22:10:22.169Z,97085.78
2022-10-22T22:12:51.273Z,97095.28
2022-10-22T22:15:19.504Z,97092.75
2022-10-22T22:17:46.570Z,97093.72
2022-10-22T22:20:13.144Z,97096.75
2022-10-22T22:22:40.039Z,97090.25
2022-10-22T22:25:07.048Z,97087.81
2022-10-22T22:27:34.406Z,97080.25
2022-10-22T22:30:00.985Z,97072.31
2022-10-22T22:32:27.562Z,97067.84
2022-10-22T22:34:54.107Z,97069.41
2022-10-22T22:37:20.861Z,97078.44
2022-10-22T22:39:47.393Z,97079.53
2022-10-22T22:42:13.994Z,97063.38
2022-10-22T22:44:40.669Z,97064.09
2022-10-22T22:47:07.252Z,97057.97
2022-10-22T22:49:35.466Z,97047.38
2022-10-22T22:52:02.054Z,97050.16
2022-10-22T22:54:28.803Z,97049.03
2022-10-22T22:56:55.488Z,97058.81
2022-10-22T22:59:22.647Z,97056.41
2022-10-22T23:01:49.953Z,97054.97
2022-10-22T23:04:22.757Z,97046.56
2022-10-22T23:06:50.619Z,97042.09
2022-10-22T23:11:50.880Z,97040.44
2022-10-22T23:14:18.671Z,97048.47
2022-10-22T23:16:48.160Z,97046.78
2022-10-22T23:19:17.244Z,97049.22
2022-10-22T23:21:53.937Z,97046.31
2022-10-22T23:24:24.185Z,97041.00
2022-10-22T23:26:52.722Z,97036.56
2022-10-22T23:29:26.144Z,97037.53
2022-10-22T23:31:53.972Z,97038.22
2022-10-22T23:34:25.041Z,97040.38
2022-10-22T23:36:53.103Z,97034.47
2022-10-22T23:39:22.087Z,97039.56
2022-10-22T23:41:48.794Z,97042.31
2022-10-22T23:44:15.838Z,97056.16
2022-10-22T23:46:42.851Z,97050.94
2022-10-22T23:49:10.494Z,97040.22
2022-10-22T23:51:38.332Z,97039.50
2022-10-22T23:54:08.055Z,97039.75
2022-10-22T23:56:35.570Z,97047.72
2022-10-22T23:59:03.274Z,97041.44
